sensor_id;sensor_type;location;lat;lon;timestamp;pressure;altitude;pressure_sealevel;temperature;humidity
69593;BME280;56796;50.122;14.468;2023-04-09T00:09:58;987.39;;;3.69;93.27
69593;BME280;56796;50.122;14.468;2023-04-09T00:29:25;987.32;;;3.63;93.29
69593;BME280;56796;50.122;14.468;2023-04-09T00:48:51;987.32;;;3.58;93.05
69593;BME280;56796;50.122;14.468;2023-04-09T01:08:18;987.3;;;3.52;93.28
69593;BME280;56796;50.122;14.468;2023-04-09T01:47:05;987.12;;;3.58;93.31
69593;BME280;56796;50.122;14.468;2023-04-09T02:06:33;987.15;;;3.68;93.25
69593;BME280;56796;50.122;14.468;2023-04-09T02:45:17;987.23;;;3.76;94.2
69593;BME280;56796;50.122;14.468;2023-04-09T03:04:43;987.19;;;3.7;94.38
69593;BME280;56796;50.122;14.468;2023-04-09T03:24:09;987.07;;;3.62;95.21
69593;BME280;56796;50.122;14.468;2023-04-09T03:43:34;987.08;;;3.66;95.66
69593;BME280;56796;50.122;14.468;2023-04-09T04:03:01;987.04;;;3.69;96.2
69593;BME280;56796;50.122;14.468;2023-04-09T04:22:27;987.13;;;3.71;96.43
69593;BME280;56796;50.122;14.468;2023-04-09T04:41:53;987.37;;;3.82;96.22
69593;BME280;56796;50.122;14.468;2023-04-09T05:01:19;987.4;;;3.82;97.39
69593;BME280;56796;50.122;14.468;2023-04-09T05:20:45;987.3;;;3.9;97.05
69593;BME280;56796;50.122;14.468;2023-04-09T05:40:12;987.42;;;4.02;96.65
69593;BME280;56796;50.122;14.468;2023-04-09T05:59:38;987.63;;;4.17;96.46
69593;BME280;56796;50.122;14.468;2023-04-09T06:19:05;987.68;;;4.46;95.84
69593;BME280;56796;50.122;14.468;2023-04-09T06:38:31;987.75;;;4.67;95.39
69593;BME280;56796;50.122;14.468;2023-04-09T06:57:59;987.94;;;5.08;94.6
69593;BME280;56796;50.122;14.468;2023-04-09T07:17:29;988.07;;;5.93;92.05
69593;BME280;56796;50.122;14.468;2023-04-09T07:36:57;987.99;;;6.21;90.92
69593;BME280;56796;50.122;14.468;2023-04-09T07:56:24;988.14;;;6.3;90.68
69593;BME280;56796;50.122;14.468;2023-04-09T08:15:52;988.15;;;8.25;88.64
69593;BME280;56796;50.122;14.468;2023-04-09T08:35:32;988.08;;;10.98;77.57
69593;BME280;56796;50.122;14.468;2023-04-09T08:55:07;988.05;;;13.2;69.55
69593;BME280;56796;50.122;14.468;2023-04-09T09:14:42;988.01;;;13.23;67.31
69593;BME280;56796;50.122;14.468;2023-04-09T09:34:14;988.11;;;14.72;61.93
69593;BME280;56796;50.122;14.468;2023-04-09T09:53:37;988.24;;;13.72;63.85
69593;BME280;56796;50.122;14.468;2023-04-09T10:13:05;988.1;;;13.89;61.2
69593;BME280;56796;50.122;14.468;2023-04-09T10:32:29;987.95;;;13.63;61.45
69593;BME280;56796;50.122;14.468;2023-04-09T10:52:00;987.85;;;13.6;61.33
69593;BME280;56796;50.122;14.468;2023-04-09T11:11:24;987.76;;;12.95;62.66
69593;BME280;56796;50.122;14.468;2023-04-09T11:30:39;987.83;;;11.56;67.04
69593;BME280;56796;50.122;14.468;2023-04-09T11:50:00;987.84;;;10.25;70.29
69593;BME280;56796;50.122;14.468;2023-04-09T12:09:22;987.9;;;9.93;73.56
69593;BME280;56796;50.122;14.468;2023-04-09T12:28:47;987.85;;;10.18;76.18
69593;BME280;56796;50.122;14.468;2023-04-09T12:48:12;987.89;;;9.54;78.21
69593;BME280;56796;50.122;14.468;2023-04-09T13:07:38;987.83;;;9.78;80.65
69593;BME280;56796;50.122;14.468;2023-04-09T13:27:06;987.75;;;10.14;77.26
69593;BME280;56796;50.122;14.468;2023-04-09T13:46:33;987.74;;;10.52;75.39
69593;BME280;56796;50.122;14.468;2023-04-09T14:06:01;987.75;;;10.69;74.92
69593;BME280;56796;50.122;14.468;2023-04-09T14:25:28;987.64;;;11.08;74.81
69593;BME280;56796;50.122;14.468;2023-04-09T14:44:54;987.58;;;10.67;75.09
69593;BME280;56796;50.122;14.468;2023-04-09T15:04:22;987.49;;;10.65;73.55
69593;BME280;56796;50.122;14.468;2023-04-09T15:23:48;987.42;;;10.44;73.61
69593;BME280;56796;50.122;14.468;2023-04-09T15:43:14;987.39;;;10.33;73.27
69593;BME280;56796;50.122;14.468;2023-04-09T16:02:39;987.35;;;10.33;71.3
69593;BME280;56796;50.122;14.468;2023-04-09T16:22:05;987.42;;;10.14;70.67
69593;BME280;56796;50.122;14.468;2023-04-09T16:41:31;987.38;;;9.92;71.09
69593;BME280;56796;50.122;14.468;2023-04-09T17:00:56;987.54;;;9.77;72.14
69593;BME280;56796;50.122;14.468;2023-04-09T17:20:21;987.59;;;9.47;73.87
69593;BME280;56796;50.122;14.468;2023-04-09T17:39:46;987.89;;;8.41;81.6
69593;BME280;56796;50.122;14.468;2023-04-09T17:59:09;988.11;;;7.42;87.64
69593;BME280;56796;50.122;14.468;2023-04-09T18:18:32;988.12;;;7.15;90.55
69593;BME280;56796;50.122;14.468;2023-04-09T18:37:58;988.13;;;7.25;90.77
69593;BME280;56796;50.122;14.468;2023-04-09T18:57:25;988.13;;;7.22;92.31
69593;BME280;56796;50.122;14.468;2023-04-09T19:16:50;988.1;;;7.26;94.11
69593;BME280;56796;50.122;14.468;2023-04-09T19:36:16;988.01;;;7.46;91.45
69593;BME280;56796;50.122;14.468;2023-04-09T19:55:43;987.95;;;7.49;90.93
69593;BME280;56796;50.122;14.468;2023-04-09T20:15:10;987.99;;;7.49;90.23
69593;BME280;56796;50.122;14.468;2023-04-09T20:34:35;988;;;7.48;90.87
69593;BME280;56796;50.122;14.468;2023-04-09T20:54:01;988.03;;;7.51;91.26
69593;BME280;56796;50.122;14.468;2023-04-09T21:13:27;988.16;;;7.48;92.03
69593;BME280;56796;50.122;14.468;2023-04-09T21:32:54;988.08;;;7.62;92.23
69593;BME280;56796;50.122;14.468;2023-04-09T21:52:21;988.11;;;7.56;93.56
69593;BME280;56796;50.122;14.468;2023-04-09T22:11:48;988.28;;;7.55;93.06
69593;BME280;56796;50.122;14.468;2023-04-09T22:31:15;988.33;;;7.6;91.79
69593;BME280;56796;50.122;14.468;2023-04-09T22:50:40;988.35;;;7.53;92.79
69593;BME280;56796;50.122;14.468;2023-04-09T23:10:07;988.35;;;7.52;92.93
69593;BME280;56796;50.122;14.468;2023-04-09T23:29:33;988.32;;;7.48;92.68
69593;BME280;56796;50.122;14.468;2023-04-09T23:48:59;988.34;;;7.47;91.97
